Terminal Aerodrome Forecast
Issued by NWS

Home | Current Version | Previous Version | Text Only | Print | Product List | Glossary On
Versions: 1 2 3 4 5 6 7 8 9 10 11 12 13 14 15 16 17 18 19 20
808
FTUS45 KRIW 220539
TAFBPI
TAF
KBPI 220539Z 2206/2306 34007KT P6SM VCFG SCT050
     FM221700 VRB06KT P6SM SCT100 BKN150
     FM222100 13007KT P6SM VCSH SCT040 BKN080
     FM230000 13010KT 5SM -SN OVC025
     FM230300 14010KT 2SM -SN OVC015=

USA.gov is the U.S. government's official web portal to all federal, state and local government web resources and services.